createdAt,value
2023-01-27T00:00:19.117Z,4.10
2023-01-27T00:00:57.095Z,3.28
2023-01-27T00:01:30.296Z,3.40
2023-01-27T00:02:05.241Z,3.63
2023-01-27T00:02:41.103Z,3.78
2023-01-27T00:03:19.111Z,3.63
2023-01-27T00:03:53.076Z,4.03
2023-01-27T00:05:16.524Z,4.15
2023-01-27T00:05:55.363Z,4.15
2023-01-27T00:06:27.148Z,4.28
2023-01-27T00:07:07.888Z,4.05
2023-01-27T00:07:51.922Z,3.10
2023-01-27T00:08:23.580Z,3.60
2023-01-27T00:08:55.277Z,3.85
2023-01-27T00:09:40.093Z,4.30
2023-01-27T00:10:21.127Z,4.43
2023-01-27T00:11:29.502Z,3.80
2023-01-27T00:12:19.633Z,3.50
2023-01-27T00:13:09.842Z,3.22
2023-01-27T00:13:41.556Z,4.28
2023-01-27T00:14:16.228Z,3.78
2023-01-27T00:14:47.822Z,4.20
2023-01-27T00:15:19.597Z,3.65
2023-01-27T00:15:53.500Z,4.53
2023-01-27T00:16:25.248Z,5.28
2023-01-27T00:16:57.046Z,3.75
2023-01-27T00:17:28.794Z,4.35
2023-01-27T00:18:09.620Z,4.50
2023-01-27T00:18:47.172Z,4.68
2023-01-27T00:19:21.813Z,5.22
2023-01-27T00:19:53.536Z,3.85
2023-01-27T00:20:46.727Z,4.23
2023-01-27T00:21:39.976Z,3.75
2023-01-27T00:22:30.102Z,4.25
2023-01-27T00:23:27.791Z,3.97
2023-01-27T00:24:30.920Z,4.55
2023-01-27T00:25:09.793Z,4.35
2023-01-27T00:25:58.531Z,4.25
2023-01-27T00:26:32.922Z,4.63
2023-01-27T00:27:15.150Z,4.63
2023-01-27T00:28:08.508Z,4.15
2023-01-27T00:28:41.775Z,4.60
2023-01-27T00:29:13.441Z,4.53
2023-01-27T00:29:45.150Z,5.28
2023-01-27T00:30:22.710Z,4.53
2023-01-27T00:31:04.209Z,5.47
2023-01-27T00:31:54.626Z,5.20
2023-01-27T00:32:51.254Z,4.13
2023-01-27T00:33:28.220Z,4.30
2023-01-27T00:34:09.217Z,5.57
2023-01-27T00:34:46.597Z,4.30
2023-01-27T00:35:20.495Z,4.10
2023-01-27T00:35:58.537Z,5.07
2023-01-27T00:37:04.704Z,4.82
2023-01-27T00:38:14.184Z,4.55
2023-01-27T00:38:51.915Z,4.25
2023-01-27T00:39:31.870Z,4.28
2023-01-27T00:40:20.275Z,4.78
2023-01-27T00:41:12.798Z,4.60
2023-01-27T00:41:44.337Z,5.10
2023-01-27T00:42:16.362Z,4.75
2023-01-27T00:42:48.052Z,3.90
2023-01-27T00:44:26.184Z,4.03
2023-01-27T00:45:16.441Z,5.78
2023-01-27T00:45:51.328Z,4.70
2023-01-27T00:46:50.886Z,3.65
2023-01-27T00:47:46.068Z,5.53
2023-01-27T00:48:39.939Z,4.90
2023-01-27T00:49:19.472Z,5.28
2023-01-27T00:50:04.816Z,4.40
2023-01-27T00:50:48.885Z,5.77
2023-01-27T00:51:31.055Z,4.72
2023-01-27T00:52:02.815Z,6.30
2023-01-27T00:52:34.403Z,4.60
2023-01-27T00:53:11.338Z,5.30
2023-01-27T00:54:00.323Z,5.32
2023-01-27T00:55:36.177Z,5.30
2023-01-27T00:56:08.291Z,5.10
2023-01-27T00:56:43.864Z,6.25
2023-01-27T00:57:50.097Z,5.80
2023-01-27T01:02:07.337Z,5.93
2023-01-27T01:03:18.066Z,4.93
2023-01-27T01:05:13.682Z,5.10
2023-01-27T01:06:38.626Z,5.47
2023-01-27T01:07:49.583Z,5.50
2023-01-27T01:09:59.582Z,6.13
2023-01-27T01:11:21.401Z,6.43
2023-01-27T01:13:10.900Z,5.68
2023-01-27T01:14:32.076Z,6.03
2023-01-27T01:15:35.783Z,6.63
2023-01-27T01:19:42.946Z,5.28
2023-01-27T01:20:37.811Z,5.90
2023-01-27T01:21:44.822Z,6.70
2023-01-27T01:23:06.640Z,5.63
2023-01-27T01:24:46.652Z,5.60
2023-01-27T01:25:53.058Z,5.80
2023-01-27T01:27:10.344Z,6.47
2023-01-27T01:28:28.974Z,6.57
2023-01-27T01:29:00.812Z,5.47
2023-01-27T01:29:45.568Z,6.57
2023-01-27T01:30:17.880Z,6.95
2023-01-27T01:31:07.929Z,7.13
2023-01-27T01:32:29.087Z,5.63
2023-01-27T01:33:20.282Z,6.37
2023-01-27T01:33:52.144Z,5.65
2023-01-27T01:34:24.131Z,6.05
2023-01-27T01:35:25.747Z,6.88
2023-01-27T01:35:57.656Z,6.68
2023-01-27T01:36:29.503Z,5.82
2023-01-27T01:37:10.267Z,7.03
2023-01-27T01:37:41.903Z,6.85
2023-01-27T01:38:13.719Z,6.80
2023-01-27T01:38:57.739Z,6.38
2023-01-27T01:40:08.640Z,7.07
2023-01-27T01:40:45.247Z,6.90
2023-01-27T01:41:24.210Z,5.75
2023-01-27T01:41:55.909Z,7.38
2023-01-27T01:42:50.739Z,6.72
2023-01-27T01:43:23.160Z,7.18
2023-01-27T01:43:57.127Z,6.93
2023-01-27T01:44:38.430Z,7.05
2023-01-27T01:45:42.341Z,7.00
2023-01-27T01:46:20.991Z,6.47
2023-01-27T01:46:56.175Z,6.57
2023-01-27T01:47:34.068Z,6.05
2023-01-27T01:48:26.019Z,6.88
2023-01-27T01:49:06.772Z,7.00
2023-01-27T01:49:50.037Z,6.53
2023-01-27T01:50:22.241Z,5.95
2023-01-27T01:51:30.230Z,7.68
2023-01-27T01:52:24.721Z,7.47
2023-01-27T01:52:56.586Z,6.15
2023-01-27T01:53:33.952Z,6.95
2023-01-27T01:54:35.471Z,6.73
2023-01-27T01:55:07.344Z,6.25
2023-01-27T01:55:42.287Z,8.45
2023-01-27T01:56:22.153Z,7.90
2023-01-27T01:57:28.001Z,7.63
2023-01-27T01:58:04.703Z,6.22
2023-01-27T01:59:31.656Z,6.95
2023-01-27T02:00:07.736Z,7.60
2023-01-27T02:00:48.307Z,6.57
2023-01-27T02:01:29.312Z,8.10
2023-01-27T02:02:07.741Z,8.10
2023-01-27T02:02:40.973Z,7.88
2023-01-27T02:03:13.254Z,7.47
2023-01-27T02:03:53.432Z,6.93
2023-01-27T02:04:32.107Z,7.68
2023-01-27T02:06:05.118Z,7.45
2023-01-27T02:06:57.870Z,7.90
2023-01-27T02:07:58.439Z,6.68
2023-01-27T02:08:44.384Z,6.00
2023-01-27T02:09:20.803Z,6.35
2023-01-27T02:10:10.733Z,6.40
2023-01-27T02:10:50.540Z,7.13
2023-01-27T02:12:11.075Z,7.05
2023-01-27T02:12:42.801Z,8.02
2023-01-27T02:13:19.461Z,8.30
2023-01-27T02:13:51.058Z,7.53
2023-01-27T02:14:22.791Z,7.47
2023-01-27T02:14:54.770Z,6.90
2023-01-27T02:15:46.223Z,6.80
2023-01-27T02:16:26.973Z,6.72
2023-01-27T02:16:58.853Z,7.38
2023-01-27T02:17:52.328Z,7.97
2023-01-27T02:18:52.714Z,7.88
2023-01-27T02:20:57.188Z,7.50
2023-01-27T02:21:58.300Z,8.45
2023-01-27T02:22:54.624Z,7.78
2023-01-27T02:23:41.239Z,7.53
2023-01-27T02:24:26.061Z,7.82
2023-01-27T02:25:31.290Z,7.47
2023-01-27T02:26:29.958Z,8.05
2023-01-27T02:27:01.597Z,6.80
2023-01-27T02:27:39.229Z,7.32
2023-01-27T02:28:16.507Z,7.60
2023-01-27T02:30:46.077Z,7.20
2023-01-27T02:31:29.468Z,6.78
2023-01-27T02:32:03.920Z,7.13
2023-01-27T02:32:44.521Z,8.15
2023-01-27T02:33:21.858Z,8.13
2023-01-27T02:34:00.284Z,8.48
2023-01-27T02:34:38.164Z,9.02
2023-01-27T02:35:16.722Z,8.43
2023-01-27T02:35:54.188Z,8.93
2023-01-27T02:36:44.820Z,8.50
2023-01-27T02:37:16.660Z,8.73
2023-01-27T02:38:06.890Z,8.30
2023-01-27T02:39:02.246Z,8.87
2023-01-27T02:39:52.029Z,7.40
2023-01-27T02:40:51.605Z,7.13
2023-01-27T02:41:37.577Z,7.38
2023-01-27T02:42:17.695Z,7.30
2023-01-27T02:42:58.234Z,8.15
2023-01-27T02:43:34.616Z,7.45
2023-01-27T02:44:07.644Z,7.68
2023-01-27T02:44:41.622Z,8.50
2023-01-27T02:45:16.520Z,7.78
2023-01-27T02:45:52.002Z,10.30
2023-01-27T02:46:23.833Z,7.95
2023-01-27T02:47:00.424Z,7.60
2023-01-27T02:47:32.265Z,8.38
2023-01-27T02:48:09.344Z,8.20
2023-01-27T02:48:41.075Z,8.57
2023-01-27T02:49:13.460Z,8.52
2023-01-27T02:49:50.387Z,10.43
2023-01-27T02:50:25.192Z,9.15
2023-01-27T02:50:56.881Z,9.05
2023-01-27T02:51:57.254Z,8.53
2023-01-27T02:52:34.704Z,8.93
2023-01-27T02:53:19.649Z,8.77
2023-01-27T02:53:54.045Z,9.00
2023-01-27T02:54:27.728Z,8.68
2023-01-27T02:55:07.030Z,9.32
2023-01-27T02:55:38.715Z,9.73
2023-01-27T02:56:10.951Z,8.68
2023-01-27T02:56:47.803Z,9.75
2023-01-27T02:57:19.517Z,8.70
2023-01-27T02:58:04.768Z,10.87
2023-01-27T02:58:43.213Z,9.98
2023-01-27T02:59:15.059Z,9.00
2023-01-27T02:59:52.770Z,9.07
2023-01-27T03:00:24.520Z,8.48
2023-01-27T03:00:56.210Z,9.30
2023-01-27T03:01:27.963Z,10.60
2023-01-27T03:02:00.106Z,10.18
2023-01-27T03:02:31.802Z,10.40
2023-01-27T03:03:03.503Z,10.30
2023-01-27T03:03:35.302Z,9.83
2023-01-27T03:04:12.695Z,9.32
2023-01-27T03:04:51.440Z,9.65
2023-01-27T03:05:28.250Z,10.38
2023-01-27T03:06:06.759Z,9.88
2023-01-27T03:07:04.739Z,10.55
2023-01-27T03:07:32.875Z,8.50
2023-01-27T03:08:26.701Z,9.95
2023-01-27T03:09:04.799Z,9.20
2023-01-27T03:09:46.740Z,8.68
2023-01-27T03:10:24.443Z,9.13
2023-01-27T03:10:58.969Z,9.02
2023-01-27T03:11:49.589Z,9.82
2023-01-27T03:12:24.315Z,8.90
2023-01-27T03:12:58.719Z,9.95
2023-01-27T03:13:33.013Z,9.40
2023-01-27T03:14:05.220Z,10.00
2023-01-27T03:15:04.931Z,10.20
2023-01-27T03:16:03.854Z,10.48
2023-01-27T03:16:54.595Z,8.10
2023-01-27T03:17:47.324Z,9.43
2023-01-27T03:18:19.219Z,9.70
2023-01-27T03:18:51.635Z,10.00
2023-01-27T03:19:23.353Z,9.93
2023-01-27T03:19:55.001Z,10.05
2023-01-27T03:20:26.576Z,9.88
2023-01-27T03:21:08.851Z,10.73
2023-01-27T03:21:40.520Z,10.23
2023-01-27T03:22:12.128Z,9.98
2023-01-27T03:22:43.972Z,10.75
2023-01-27T03:23:19.994Z,10.73
2023-01-27T03:23:54.626Z,10.90
2023-01-27T03:24:26.479Z,10.15
2023-01-27T03:24:58.253Z,12.23
2023-01-27T03:25:30.037Z,10.63
2023-01-27T03:26:05.773Z,10.18
2023-01-27T03:26:38.730Z,10.55
2023-01-27T03:27:12.629Z,9.90
2023-01-27T03:27:47.085Z,10.93
2023-01-27T03:28:18.710Z,9.50
2023-01-27T03:30:12.477Z,9.57
2023-01-27T03:30:44.241Z,9.48
2023-01-27T03:31:25.067Z,9.90
2023-01-27T03:31:59.387Z,10.82
2023-01-27T03:33:08.281Z,10.45
2023-01-27T03:33:43.264Z,8.57
2023-01-27T03:34:25.386Z,9.70
2023-01-27T03:35:01.649Z,10.20
2023-01-27T03:35:42.669Z,9.38
2023-01-27T03:36:36.014Z,8.93
2023-01-27T03:37:32.504Z,10.80
2023-01-27T03:38:23.814Z,9.15
2023-01-27T03:40:25.915Z,8.70
2023-01-27T03:41:25.255Z,9.48
2023-01-27T03:42:17.970Z,9.38
2023-01-27T03:43:12.217Z,8.82
2023-01-27T03:44:14.510Z,9.02
2023-01-27T03:45:04.967Z,8.07
2023-01-27T03:46:11.113Z,7.80
2023-01-27T03:46:46.028Z,7.65
2023-01-27T03:47:24.332Z,7.28
2023-01-27T03:47:55.929Z,8.65
2023-01-27T03:48:30.849Z,8.27
2023-01-27T03:49:39.047Z,7.60
2023-01-27T03:50:19.321Z,7.30
2023-01-27T03:50:53.874Z,8.60
2023-01-27T03:51:27.172Z,7.28
2023-01-27T03:51:59.067Z,7.63
2023-01-27T03:52:30.670Z,7.93
2023-01-27T03:53:23.781Z,7.03
2023-01-27T03:53:55.595Z,8.40
2023-01-27T03:54:27.342Z,8.52
2023-01-27T03:54:58.925Z,7.82
2023-01-27T03:55:32.219Z,7.97
2023-01-27T03:56:12.670Z,8.00
2023-01-27T03:56:44.513Z,8.60
2023-01-27T03:57:16.279Z,7.13
2023-01-27T03:57:51.104Z,7.95
2023-01-27T03:58:28.607Z,7.93
2023-01-27T03:59:18.783Z,8.43
2023-01-27T03:59:50.347Z,8.25
2023-01-27T04:00:30.815Z,7.97
2023-01-27T04:01:12.771Z,7.18
2023-01-27T04:02:23.565Z,7.78
2023-01-27T04:03:14.069Z,7.10
2023-01-27T04:04:12.317Z,7.38
2023-01-27T04:05:05.741Z,7.53
2023-01-27T04:05:55.931Z,7.07
2023-01-27T04:06:54.746Z,7.67
2023-01-27T04:07:26.339Z,6.50
2023-01-27T04:07:58.009Z,6.53
2023-01-27T04:08:29.829Z,6.68
2023-01-27T04:13:40.956Z,4.93
2023-01-27T04:14:15.342Z,6.35
2023-01-27T04:14:15.759Z,6.03
2023-01-27T04:15:02.211Z,6.22
2023-01-27T04:16:02.882Z,6.03
2023-01-27T04:16:53.792Z,6.07
2023-01-27T04:17:25.742Z,7.35
2023-01-27T04:17:57.594Z,6.15
2023-01-27T04:18:40.762Z,6.95
2023-01-27T04:19:13.045Z,6.63
2023-01-27T04:19:50.672Z,6.43
2023-01-27T04:20:22.261Z,7.35
2023-01-27T04:21:21.195Z,6.30
2023-01-27T04:21:53.692Z,6.43
2023-01-27T04:22:25.352Z,6.07
2023-01-27T04:22:57.728Z,6.80
2023-01-27T04:23:29.559Z,6.20
2023-01-27T04:24:01.989Z,6.85
2023-01-27T04:24:34.148Z,6.68
2023-01-27T04:25:06.563Z,7.65
2023-01-27T04:25:38.127Z,6.93
2023-01-27T04:26:11.724Z,7.10
2023-01-27T04:27:05.554Z,8.02
2023-01-27T04:27:41.245Z,6.30
2023-01-27T04:28:37.260Z,5.73
2023-01-27T04:29:13.671Z,5.50
2023-01-27T04:29:45.315Z,6.32
2023-01-27T04:30:17.266Z,7.53
2023-01-27T04:30:51.626Z,6.53
2023-01-27T04:31:32.821Z,6.18
2023-01-27T04:32:06.212Z,7.25
2023-01-27T04:32:42.515Z,7.35
2023-01-27T04:33:15.892Z,6.90
2023-01-27T04:33:49.713Z,7.00
2023-01-27T04:34:21.815Z,6.73
2023-01-27T04:34:54.571Z,6.70
2023-01-27T04:35:38.390Z,6.63
2023-01-27T04:36:12.773Z,6.50
2023-01-27T04:36:46.995Z,6.63
2023-01-27T04:37:18.556Z,6.65
2023-01-27T04:37:53.687Z,6.95
2023-01-27T04:38:27.662Z,5.50
2023-01-27T04:38:59.587Z,5.75
2023-01-27T04:39:33.290Z,6.00
2023-01-27T04:40:07.222Z,5.63
2023-01-27T04:40:41.368Z,6.22
2023-01-27T04:41:16.238Z,6.13
2023-01-27T04:41:49.729Z,6.18
2023-01-27T04:42:24.430Z,6.65
2023-01-27T04:42:57.401Z,6.30
2023-01-27T04:43:30.747Z,6.13
2023-01-27T04:44:02.729Z,6.25
2023-01-27T04:44:34.648Z,6.03
2023-01-27T04:45:09.334Z,5.22
2023-01-27T04:45:44.429Z,5.27
2023-01-27T04:46:17.835Z,5.57
2023-01-27T04:46:50.252Z,5.55
2023-01-27T04:47:23.467Z,5.57
2023-01-27T04:48:00.905Z,6.30
2023-01-27T04:48:32.609Z,5.30
2023-01-27T04:49:10.301Z,5.28
2023-01-27T04:49:42.425Z,5.78
2023-01-27T04:50:19.832Z,6.07
2023-01-27T04:50:51.397Z,5.05
2023-01-27T04:51:27.476Z,5.47
2023-01-27T04:52:00.235Z,5.57
2023-01-27T04:52:33.943Z,5.13
2023-01-27T04:53:05.550Z,5.57
2023-01-27T04:53:42.208Z,6.07
2023-01-27T04:54:15.500Z,5.22
2023-01-27T04:54:47.054Z,4.97
2023-01-27T04:55:20.201Z,4.93
2023-01-27T04:56:06.728Z,5.20
2023-01-27T04:56:41.242Z,4.90
2023-01-27T04:57:17.373Z,4.37
2023-01-27T04:57:48.965Z,4.55
2023-01-27T04:58:23.371Z,5.15
2023-01-27T04:59:01.522Z,5.40
2023-01-27T04:59:33.202Z,5.70
2023-01-27T05:00:08.969Z,4.38
2023-01-27T05:00:40.646Z,4.47
2023-01-27T05:01:14.200Z,4.95
2023-01-27T05:01:46.041Z,4.50
2023-01-27T05:02:17.863Z,5.10
2023-01-27T05:02:49.795Z,4.17
2023-01-27T05:03:23.213Z,4.85
2023-01-27T05:03:58.423Z,5.22
2023-01-27T05:04:31.715Z,5.20
2023-01-27T05:05:07.932Z,5.53
2023-01-27T05:05:39.617Z,4.72
2023-01-27T05:06:12.395Z,4.80
2023-01-27T05:06:46.861Z,5.28
2023-01-27T05:07:18.911Z,5.18
2023-01-27T05:07:51.054Z,5.07
2023-01-27T05:08:25.451Z,4.77
2023-01-27T05:08:57.092Z,4.85
2023-01-27T05:09:32.933Z,4.55
2023-01-27T05:10:07.213Z,5.03
2023-01-27T05:10:38.847Z,5.57
2023-01-27T05:11:11.501Z,4.30
2023-01-27T05:11:48.449Z,4.47
2023-01-27T05:12:21.987Z,5.40
2023-01-27T05:12:53.917Z,5.07
2023-01-27T05:13:27.738Z,4.35
2023-01-27T05:13:59.352Z,4.63
2023-01-27T05:14:30.948Z,4.38
2023-01-27T05:15:04.853Z,5.28
2023-01-27T05:15:37.086Z,5.65
2023-01-27T05:16:15.615Z,5.05
2023-01-27T05:16:48.908Z,4.95
2023-01-27T05:17:20.643Z,4.50
2023-01-27T05:17:54.828Z,4.78
2023-01-27T05:18:28.820Z,4.22
2023-01-27T05:19:01.700Z,4.03
2023-01-27T05:19:35.919Z,4.50
2023-01-27T05:20:08.080Z,4.18
2023-01-27T05:20:42.412Z,4.65
2023-01-27T05:21:24.994Z,5.00
2023-01-27T05:21:59.214Z,4.25
2023-01-27T05:22:31.091Z,4.10
2023-01-27T05:23:21.104Z,4.25
2023-01-27T05:23:54.750Z,5.47
2023-01-27T05:24:26.531Z,4.68
2023-01-27T05:25:00.650Z,4.13
2023-01-27T05:25:35.411Z,4.93
2023-01-27T05:26:21.364Z,4.07
2023-01-27T05:26:54.305Z,4.25
2023-01-27T05:27:30.506Z,5.28
2023-01-27T05:28:02.211Z,4.53
2023-01-27T05:28:35.193Z,4.03
2023-01-27T05:29:07.278Z,4.45
2023-01-27T05:29:39.279Z,4.70
2023-01-27T05:30:13.825Z,4.10
2023-01-27T05:30:48.148Z,5.10
2023-01-27T05:31:32.030Z,4.63
2023-01-27T05:32:06.182Z,4.32
2023-01-27T05:32:39.207Z,4.75
2023-01-27T05:33:14.165Z,5.15
2023-01-27T05:33:49.885Z,5.10
2023-01-27T05:34:25.950Z,4.88
2023-01-27T05:34:59.985Z,4.93
2023-01-27T05:35:35.437Z,5.25
2023-01-27T05:36:10.131Z,4.95
2023-01-27T05:36:41.741Z,4.72
2023-01-27T05:37:17.356Z,4.70
2023-01-27T05:37:49.489Z,4.38
2023-01-27T05:38:21.319Z,4.00
2023-01-27T05:38:55.222Z,5.55
2023-01-27T05:39:31.547Z,5.90
2023-01-27T05:40:03.448Z,4.93
2023-01-27T05:40:38.201Z,4.35
2023-01-27T05:41:11.595Z,5.05
2023-01-27T05:42:01.899Z,5.05
2023-01-27T05:42:39.045Z,4.22
2023-01-27T05:43:12.042Z,4.77
2023-01-27T05:43:47.643Z,4.90
2023-01-27T05:44:19.635Z,5.40
2023-01-27T05:44:51.415Z,5.53
2023-01-27T05:45:24.242Z,4.47
2023-01-27T05:46:12.586Z,5.10
2023-01-27T05:46:51.936Z,4.57
2023-01-27T05:47:23.561Z,4.85
2023-01-27T05:47:58.197Z,5.55
2023-01-27T05:48:34.792Z,4.47
2023-01-27T05:49:09.638Z,4.90
2023-01-27T05:49:44.090Z,4.60
2023-01-27T05:50:16.596Z,5.53
2023-01-27T05:51:00.085Z,6.40
2023-01-27T05:51:34.531Z,5.88
2023-01-27T05:52:06.254Z,5.15
2023-01-27T05:52:37.990Z,5.13
2023-01-27T05:53:13.601Z,5.78
2023-01-27T05:53:49.196Z,4.88
2023-01-27T05:54:23.410Z,4.72
2023-01-27T05:54:55.029Z,5.13
2023-01-27T05:55:27.984Z,4.72
2023-01-27T05:56:00.496Z,5.30
2023-01-27T05:56:36.942Z,5.30
2023-01-27T05:58:00.224Z,4.70
2023-01-27T05:58:34.402Z,5.07
2023-01-27T05:59:06.504Z,4.53
2023-01-27T05:59:40.308Z,5.20
2023-01-27T06:00:16.912Z,5.65
2023-01-27T06:00:49.205Z,4.73
2023-01-27T06:01:25.040Z,4.57
2023-01-27T06:02:15.710Z,4.57
2023-01-27T06:02:48.759Z,4.80
2023-01-27T06:03:20.883Z,4.47
2023-01-27T06:03:54.921Z,4.50
2023-01-27T06:04:26.870Z,4.57
2023-01-27T06:05:03.432Z,4.43
2023-01-27T06:05:37.607Z,3.72
2023-01-27T06:06:17.318Z,4.57
2023-01-27T06:06:51.129Z,4.43
2023-01-27T06:07:26.009Z,4.10
2023-01-27T06:07:59.624Z,4.75
2023-01-27T06:08:31.698Z,4.60
2023-01-27T06:09:06.124Z,4.13
2023-01-27T06:09:40.062Z,4.93
2023-01-27T06:10:30.640Z,4.43
2023-01-27T06:11:05.644Z,4.65
2023-01-27T06:11:39.393Z,4.75
2023-01-27T06:12:13.345Z,4.43
2023-01-27T06:12:47.004Z,4.40
2023-01-27T06:13:22.315Z,4.72
2023-01-27T06:13:56.152Z,4.70
2023-01-27T06:14:30.485Z,4.88
2023-01-27T06:15:05.281Z,4.85
2023-01-27T06:15:39.349Z,4.07
2023-01-27T06:16:17.426Z,4.97
2023-01-27T06:16:54.320Z,4.72
2023-01-27T06:17:27.359Z,4.00
2023-01-27T06:18:00.692Z,5.50
2023-01-27T06:18:32.472Z,4.43
2023-01-27T06:19:06.658Z,4.47
2023-01-27T06:19:38.371Z,5.20
2023-01-27T06:20:11.912Z,4.78
2023-01-27T06:20:45.750Z,5.53
2023-01-27T06:21:20.926Z,4.15
2023-01-27T06:21:53.929Z,4.55
2023-01-27T06:22:32.834Z,4.43
2023-01-27T06:23:06.913Z,5.72
2023-01-27T06:23:39.923Z,4.82
2023-01-27T06:24:12.761Z,4.50
2023-01-27T06:24:47.785Z,4.40
2023-01-27T06:25:22.349Z,5.55
2023-01-27T06:25:57.660Z,4.15
2023-01-27T06:26:31.431Z,5.30
2023-01-27T06:27:04.389Z,4.10
2023-01-27T06:27:36.157Z,4.15
2023-01-27T06:28:27.770Z,4.63
2023-01-27T06:29:03.233Z,5.10
2023-01-27T06:29:37.503Z,4.35
2023-01-27T06:30:13.169Z,4.17
2023-01-27T06:30:53.932Z,4.35
2023-01-27T06:31:28.333Z,3.92
2023-01-27T06:32:02.539Z,4.55
2023-01-27T06:32:37.875Z,3.95
2023-01-27T06:33:10.227Z,4.28
2023-01-27T06:33:44.902Z,3.97
2023-01-27T06:34:17.696Z,3.95
2023-01-27T06:34:53.518Z,4.57
2023-01-27T06:35:28.217Z,3.83
2023-01-27T06:36:10.486Z,3.80
2023-01-27T06:36:43.662Z,3.20
2023-01-27T06:37:17.809Z,3.95
2023-01-27T06:37:51.868Z,4.20
2023-01-27T06:38:28.249Z,4.43
2023-01-27T06:38:59.922Z,4.55
2023-01-27T06:39:34.484Z,4.53
2023-01-27T06:40:09.095Z,4.85
2023-01-27T06:40:41.118Z,4.68
2023-01-27T06:41:15.461Z,4.35
2023-01-27T06:41:48.646Z,3.90
2023-01-27T06:42:20.489Z,4.05
2023-01-27T06:42:57.833Z,4.57
2023-01-27T06:43:30.424Z,4.13
2023-01-27T13:47:57.380Z,4.43
2023-01-27T13:51:21.621Z,4.78
2023-01-27T13:52:22.347Z,3.80
2023-01-27T13:53:32.993Z,4.18
2023-01-27T13:54:34.757Z,4.32
2023-01-27T13:56:01.699Z,3.60
2023-01-27T13:56:51.756Z,3.40
2023-01-27T13:59:42.147Z,3.03
2023-01-27T14:00:40.789Z,3.10
2023-01-27T14:02:19.824Z,4.05
2023-01-27T14:05:24.148Z,3.38
2023-01-27T14:06:37.392Z,3.80
2023-01-27T14:07:09.299Z,3.60
2023-01-27T14:08:04.351Z,3.90
2023-01-27T14:09:43.669Z,4.10
2023-01-27T14:12:35.850Z,2.28
2023-01-27T14:15:38.571Z,3.90
2023-01-27T14:19:46.091Z,3.22
2023-01-27T14:21:34.681Z,3.05
2023-01-27T14:22:46.571Z,3.85
2023-01-27T14:23:36.829Z,2.80
2023-01-27T14:24:11.677Z,3.13
2023-01-27T14:24:46.518Z,4.10
2023-01-27T14:27:01.050Z,4.10
2023-01-27T14:27:41.417Z,3.85
2023-01-27T14:28:35.187Z,3.45
2023-01-27T14:29:27.983Z,3.85
2023-01-27T14:30:31.454Z,4.22
2023-01-27T14:32:41.395Z,3.53
2023-01-27T14:33:44.089Z,3.80
2023-01-27T14:35:07.999Z,3.65
2023-01-27T14:41:18.275Z,3.78
2023-01-27T14:45:16.304Z,2.63
2023-01-27T14:54:58.589Z,2.97
2023-01-27T14:58:23.156Z,3.20
2023-01-27T15:01:47.212Z,3.65
2023-01-27T15:51:43.150Z,4.29
2023-01-27T15:53:40.665Z,4.82
2023-01-27T15:54:38.086Z,4.05
2023-01-27T15:55:36.081Z,5.60
2023-01-27T15:56:47.769Z,4.28
2023-01-27T15:57:39.232Z,4.30
2023-01-27T15:59:05.252Z,4.70
2023-01-27T15:59:58.934Z,5.28
2023-01-27T16:00:38.232Z,4.30
2023-01-27T16:01:23.073Z,4.63
2023-01-27T16:02:18.291Z,4.50
2023-01-27T16:02:54.851Z,5.15
2023-01-27T16:03:48.033Z,5.43
2023-01-27T16:04:31.079Z,5.20
2023-01-27T16:05:15.558Z,5.23
2023-01-27T16:05:56.483Z,5.32
2023-01-27T16:06:29.836Z,5.13
2023-01-27T16:07:04.283Z,5.38
2023-01-27T16:07:40.191Z,4.95
2023-01-27T16:08:18.494Z,4.88
2023-01-27T16:09:53.206Z,5.35
2023-01-27T16:10:29.575Z,5.15
2023-01-27T16:11:24.854Z,4.63
2023-01-27T16:12:28.389Z,5.10
2023-01-27T16:13:37.568Z,4.22
2023-01-27T16:14:12.071Z,4.32
2023-01-27T16:14:45.497Z,5.82
2023-01-27T16:15:33.425Z,5.60
2023-01-27T16:16:20.330Z,5.13
2023-01-27T16:16:51.956Z,4.82
2023-01-27T16:17:27.262Z,5.50
2023-01-27T16:18:09.605Z,5.80
2023-01-27T16:18:53.142Z,4.90
2023-01-27T16:19:36.319Z,5.63
2023-01-27T16:20:21.077Z,5.50
2023-01-27T16:21:30.214Z,5.03
2023-01-27T16:22:08.409Z,4.47
2023-01-27T16:22:45.999Z,4.47
2023-01-27T16:23:39.107Z,4.45
2023-01-27T16:24:25.299Z,4.45
2023-01-27T16:25:29.912Z,5.53
2023-01-27T16:26:33.017Z,5.03
2023-01-27T16:27:18.377Z,4.07
2023-01-27T16:28:02.808Z,4.57
2023-01-27T16:28:36.163Z,4.30
2023-01-27T16:29:35.075Z,5.05
2023-01-27T16:30:24.012Z,5.68
2023-01-27T16:31:01.458Z,4.85
2023-01-27T16:31:33.118Z,4.95
2023-01-27T16:32:17.367Z,5.63
2023-01-27T16:33:26.081Z,5.47
2023-01-27T16:34:00.088Z,4.93
2023-01-27T16:34:38.267Z,4.60
2023-01-27T16:35:19.423Z,5.20
2023-01-27T16:36:06.114Z,5.70
2023-01-27T16:36:38.609Z,5.40
2023-01-27T16:37:21.302Z,5.15
2023-01-27T16:39:14.207Z,4.32
2023-01-27T16:40:13.730Z,5.88
2023-01-27T16:40:54.258Z,5.15
2023-01-27T16:41:29.685Z,5.03
2023-01-27T16:42:01.412Z,5.22
2023-01-27T16:42:41.044Z,6.27
2023-01-27T16:43:18.488Z,4.82
2023-01-27T16:43:58.171Z,5.45
2023-01-27T16:44:50.143Z,6.53
2023-01-27T16:45:29.131Z,5.10
2023-01-27T16:46:02.531Z,5.32
2023-01-27T16:46:40.966Z,6.03
2023-01-27T16:47:28.223Z,6.05
2023-01-27T16:48:06.127Z,6.00
2023-01-27T16:48:46.343Z,5.60
2023-01-27T16:49:24.615Z,5.33
2023-01-27T16:49:56.638Z,5.10
2023-01-27T16:50:39.833Z,6.18
2023-01-27T16:51:20.117Z,5.40
2023-01-27T16:51:56.659Z,5.65
2023-01-27T16:52:41.831Z,5.50
2023-01-27T16:53:24.286Z,5.85
2023-01-27T16:54:00.603Z,5.35
2023-01-27T16:54:36.496Z,5.50
2023-01-27T16:55:21.846Z,5.30
2023-01-27T16:56:02.394Z,5.47
2023-01-27T16:56:35.927Z,4.38
2023-01-27T16:57:28.755Z,5.60
2023-01-27T16:58:01.578Z,4.90
2023-01-27T16:58:45.398Z,4.43
2023-01-27T16:59:22.732Z,5.07
2023-01-27T16:59:56.389Z,4.43
2023-01-27T17:00:36.372Z,4.75
2023-01-27T17:01:45.061Z,4.93
2023-01-27T17:02:25.393Z,4.53
2023-01-27T17:03:03.081Z,4.57
2023-01-27T17:03:38.410Z,6.20
2023-01-27T17:04:20.494Z,4.93
2023-01-27T17:04:59.230Z,5.43
2023-01-27T17:05:30.811Z,4.85
2023-01-27T17:06:05.622Z,4.60
2023-01-27T17:06:37.301Z,4.78
2023-01-27T17:07:13.387Z,4.53
2023-01-27T17:08:15.949Z,5.15
2023-01-27T17:08:49.133Z,5.75
2023-01-27T17:09:27.110Z,5.20
2023-01-27T17:10:04.615Z,5.03
2023-01-27T17:10:36.119Z,4.65
2023-01-27T17:11:17.837Z,5.28
2023-01-27T17:11:49.577Z,5.30
2023-01-27T17:12:53.137Z,5.40
2023-01-27T17:13:30.835Z,5.28
2023-01-27T17:14:21.351Z,5.03
2023-01-27T17:15:02.767Z,5.72
2023-01-27T17:15:55.293Z,4.55
2023-01-27T17:16:48.748Z,4.17
2023-01-27T17:17:22.655Z,4.82
2023-01-27T17:17:56.309Z,4.07
2023-01-27T17:18:33.102Z,4.10
2023-01-27T17:19:14.978Z,4.30
2023-01-27T17:19:48.857Z,4.43
2023-01-27T17:20:32.081Z,3.47
2023-01-27T17:21:04.150Z,4.45
2023-01-27T17:21:43.746Z,4.78
2023-01-27T17:22:35.475Z,3.92
2023-01-27T17:23:07.546Z,5.07
2023-01-27T17:23:39.376Z,5.50
2023-01-27T17:24:34.661Z,4.53
2023-01-27T17:25:15.533Z,4.80
2023-01-27T17:25:49.560Z,5.57
2023-01-27T17:26:21.267Z,4.70
2023-01-27T17:27:08.078Z,4.90
2023-01-27T17:27:42.805Z,5.20
2023-01-27T17:28:21.463Z,4.88
2023-01-27T17:28:54.107Z,3.85
2023-01-27T17:29:36.936Z,3.60
2023-01-27T17:30:22.935Z,3.72
2023-01-27T17:31:34.662Z,4.25
2023-01-27T17:32:30.946Z,4.05
2023-01-27T17:33:08.544Z,3.97
2023-01-27T17:33:40.253Z,3.80
2023-01-27T17:34:22.065Z,4.45
2023-01-27T17:34:57.293Z,5.13
2023-01-27T17:35:33.011Z,4.45
2023-01-27T17:36:10.334Z,3.70
2023-01-27T17:37:08.031Z,4.57
2023-01-27T17:37:43.291Z,4.32
2023-01-27T17:38:20.066Z,4.05
2023-01-27T17:38:51.875Z,5.53
2023-01-27T17:39:26.424Z,4.85
2023-01-27T17:40:01.512Z,5.03
2023-01-27T17:40:39.220Z,4.20
2023-01-27T17:41:37.377Z,4.95
2023-01-27T17:42:16.215Z,5.10
2023-01-27T17:42:51.171Z,4.93
2023-01-27T17:43:37.792Z,4.53
2023-01-27T17:45:23.736Z,4.50
2023-01-27T17:46:17.088Z,4.05
2023-01-27T17:47:07.434Z,4.65
2023-01-27T17:47:43.851Z,4.82
2023-01-27T17:48:15.943Z,5.03
2023-01-27T17:48:53.085Z,5.10
2023-01-27T17:49:24.774Z,5.28
2023-01-27T17:49:57.619Z,5.47
2023-01-27T17:50:45.558Z,5.47
2023-01-27T17:51:21.617Z,4.82
2023-01-27T17:51:55.740Z,4.43
2023-01-27T17:52:27.703Z,5.03
2023-01-27T17:52:59.792Z,4.90
2023-01-27T17:53:31.884Z,4.97
2023-01-27T17:54:17.980Z,4.88
2023-01-27T17:54:50.442Z,5.10
2023-01-27T17:55:24.420Z,5.47
2023-01-27T17:55:56.960Z,4.47
2023-01-27T17:56:35.646Z,5.23
2023-01-27T17:57:21.289Z,5.13
2023-01-27T17:58:26.425Z,5.75
2023-01-27T17:59:11.179Z,5.40
2023-01-27T17:59:46.832Z,5.22
2023-01-27T18:00:27.363Z,5.00
2023-01-27T18:00:59.064Z,4.78
2023-01-27T18:01:31.627Z,5.50
2023-01-27T18:02:15.161Z,5.45
2023-01-27T18:03:23.057Z,4.97
2023-01-27T18:03:57.799Z,4.30
2023-01-27T18:04:36.990Z,4.78
2023-01-27T18:05:18.787Z,5.43
2023-01-27T18:05:53.954Z,4.55